createdAt,value
2019-01-08T00:00:51.158Z,8.60
2019-01-08T00:03:18.324Z,8.40
2019-01-08T00:05:45.473Z,8.30
2019-01-08T00:08:12.745Z,8.30
2019-01-08T00:10:40.070Z,8.30
2019-01-08T00:13:07.345Z,8.30
2019-01-08T00:15:34.579Z,8.60
2019-01-08T00:18:01.832Z,8.30
2019-01-08T00:20:29.191Z,8.60
2019-01-08T00:22:56.477Z,8.30
2019-01-08T00:25:23.710Z,8.80
2019-01-08T00:27:50.859Z,8.60
2019-01-08T00:30:18.101Z,8.30
2019-01-08T00:32:45.248Z,9.10
2019-01-08T00:35:12.515Z,8.30
2019-01-08T00:37:39.765Z,8.30
2019-01-08T00:40:07.155Z,8.80
2019-01-08T00:42:34.494Z,8.30
2019-01-08T00:45:01.728Z,8.30
2019-01-08T00:47:29.012Z,8.80
2019-01-08T00:49:56.238Z,8.30
2019-01-08T00:52:23.456Z,8.50
2019-01-08T00:54:50.697Z,8.40
2019-01-08T00:57:17.960Z,8.30
2019-01-08T00:59:45.202Z,8.30
2019-01-08T01:02:12.445Z,8.30
2019-01-08T01:04:39.733Z,8.20
2019-01-08T01:07:07.044Z,8.20
2019-01-08T01:09:34.283Z,8.30
2019-01-08T01:12:01.652Z,8.20
2019-01-08T01:14:28.875Z,8.90
2019-01-08T01:16:56.152Z,10.10
2019-01-08T01:19:23.367Z,8.70
2019-01-08T01:21:50.514Z,8.20
2019-01-08T01:24:17.662Z,8.40
2019-01-08T01:26:44.960Z,8.20
2019-01-08T01:29:12.236Z,8.20
2019-01-08T01:31:39.492Z,8.20
2019-01-08T01:34:06.660Z,8.30
2019-01-08T01:36:33.889Z,8.20
2019-01-08T01:39:01.131Z,9.00
2019-01-08T01:41:28.252Z,8.20
2019-01-08T01:43:55.410Z,8.20
2019-01-08T01:46:22.629Z,8.40
2019-01-08T01:48:49.889Z,8.50
2019-01-08T01:51:17.138Z,8.20
2019-01-08T01:53:44.404Z,8.20
2019-01-08T01:56:11.662Z,9.90
2019-01-08T01:58:38.849Z,8.20
2019-01-08T02:01:06.081Z,8.40
2019-01-08T02:03:33.301Z,8.70
2019-01-08T02:06:00.557Z,10.10
2019-01-08T02:08:27.782Z,8.10
2019-01-08T02:10:55.022Z,8.30
2019-01-08T02:13:22.378Z,8.90
2019-01-08T02:15:49.633Z,8.10
2019-01-08T02:18:16.767Z,8.30
2019-01-08T02:20:44.047Z,8.10
2019-01-08T02:23:11.275Z,8.00
2019-01-08T02:25:38.511Z,8.00
2019-01-08T02:28:05.789Z,8.00
2019-01-08T02:30:32.913Z,7.90
2019-01-08T02:33:00.076Z,8.10
2019-01-08T02:35:27.311Z,8.20
2019-01-08T02:37:54.455Z,7.90
2019-01-08T02:40:21.691Z,8.70
2019-01-08T02:42:48.914Z,7.80
2019-01-08T02:45:16.161Z,8.70
2019-01-08T02:47:43.314Z,7.90
2019-01-08T02:50:10.653Z,8.20
2019-01-08T02:52:37.811Z,8.00
2019-01-08T02:55:05.135Z,8.20
2019-01-08T02:57:32.307Z,8.30
2019-01-08T02:59:59.451Z,7.60
2019-01-08T03:02:26.601Z,8.40
2019-01-08T03:04:53.837Z,7.90
2019-01-08T03:07:21.069Z,8.30
2019-01-08T03:09:48.288Z,8.10
2019-01-08T03:12:15.434Z,8.70
2019-01-08T03:14:42.726Z,7.60
2019-01-08T03:17:09.969Z,7.60
2019-01-08T03:19:37.197Z,7.80
2019-01-08T03:22:04.462Z,7.60
2019-01-08T03:24:31.721Z,7.50
2019-01-08T03:26:58.942Z,7.70
2019-01-08T03:29:33.329Z,7.50
2019-01-08T03:31:55.360Z,7.70
2019-01-08T03:34:22.590Z,7.60
2019-01-08T03:36:49.832Z,7.60
2019-01-08T03:39:17.108Z,7.60
2019-01-08T03:41:44.330Z,7.60
2019-01-08T03:44:11.592Z,7.80
2019-01-08T03:46:38.836Z,8.40
2019-01-08T03:49:06.086Z,7.60
2019-01-08T03:51:33.226Z,7.70
2019-01-08T03:54:00.368Z,8.10
2019-01-08T03:56:28.210Z,7.70
2019-01-08T03:58:55.431Z,7.70
2019-01-08T04:01:22.659Z,7.70
2019-01-08T04:03:49.907Z,8.00
2019-01-08T04:06:17.154Z,7.80
2019-01-08T04:08:44.290Z,7.80
2019-01-08T04:11:11.542Z,9.90
2019-01-08T04:13:38.777Z,7.80
2019-01-08T04:16:06.005Z,7.80
2019-01-08T04:18:33.135Z,10.10
2019-01-08T04:21:00.394Z,7.80
2019-01-08T04:23:29.420Z,7.80
2019-01-08T04:25:56.714Z,7.80
2019-01-08T04:28:23.883Z,7.80
2019-01-08T04:30:51.024Z,7.80
2019-01-08T04:33:18.293Z,7.90
2019-01-08T04:35:45.450Z,7.80
2019-01-08T04:38:12.673Z,7.80
2019-01-08T04:40:39.921Z,7.80
2019-01-08T04:43:07.157Z,8.70
2019-01-08T04:45:34.419Z,7.80
2019-01-08T04:48:04.103Z,7.80
2019-01-08T04:50:31.258Z,7.80
2019-01-08T04:52:58.523Z,7.70
2019-01-08T04:55:25.748Z,7.70
2019-01-08T04:57:53.039Z,7.70
2019-01-08T05:00:20.264Z,7.60
2019-01-08T05:02:47.528Z,7.60
2019-01-08T05:05:14.657Z,7.60
2019-01-08T05:07:41.921Z,7.50
2019-01-08T05:10:09.142Z,8.50
2019-01-08T05:12:36.367Z,7.50
2019-01-08T05:15:03.665Z,8.10
2019-01-08T05:17:30.805Z,7.80
2019-01-08T05:19:58.086Z,7.40
2019-01-08T05:22:25.250Z,8.00
2019-01-08T05:24:52.505Z,7.40
2019-01-08T05:27:19.829Z,7.70
2019-01-08T05:29:47.062Z,7.40
2019-01-08T05:32:14.299Z,7.60
2019-01-08T05:34:41.559Z,8.00
2019-01-08T05:37:08.817Z,7.60
2019-01-08T05:39:35.978Z,7.40
2019-01-08T05:42:03.131Z,7.40
2019-01-08T05:44:30.266Z,7.40
2019-01-08T05:46:57.540Z,7.50
2019-01-08T05:49:24.761Z,7.30
2019-01-08T05:51:52.099Z,7.40
2019-01-08T05:54:19.343Z,7.50
2019-01-08T05:56:46.469Z,7.40
2019-01-08T05:59:13.637Z,7.40
2019-01-08T06:01:40.871Z,7.40
2019-01-08T06:04:08.125Z,7.90
2019-01-08T06:06:35.357Z,7.40
2019-01-08T06:09:04.327Z,9.40
2019-01-08T06:11:31.572Z,7.40
2019-01-08T06:13:58.829Z,7.40
2019-01-08T06:16:26.065Z,7.50
2019-01-08T06:18:53.293Z,8.70
2019-01-08T06:21:20.559Z,7.60
2019-01-08T06:23:47.793Z,7.50
2019-01-08T06:26:15.065Z,7.90
2019-01-08T06:28:42.213Z,7.60
2019-01-08T06:31:09.365Z,7.60
2019-01-08T06:33:36.588Z,7.60
2019-01-08T06:36:03.836Z,7.60
2019-01-08T06:38:31.071Z,7.60
2019-01-08T06:40:58.312Z,7.70
2019-01-08T06:43:45.073Z,7.70
2019-01-08T06:46:12.217Z,7.90
2019-01-08T06:48:39.483Z,7.90
2019-01-08T06:51:06.720Z,7.70
2019-01-08T06:53:34.015Z,7.70
2019-01-08T06:56:01.236Z,7.90
2019-01-08T06:58:28.532Z,7.80
2019-01-08T07:00:55.782Z,7.80
2019-01-08T07:03:42.612Z,7.80
2019-01-08T07:06:09.830Z,7.80
2019-01-08T07:08:37.093Z,7.80
2019-01-08T07:11:04.301Z,7.90
2019-01-08T07:14:34.239Z,7.80
2019-01-08T07:17:01.486Z,7.80
2019-01-08T07:19:28.734Z,8.00
2019-01-08T07:21:56.007Z,7.90
2019-01-08T07:24:23.262Z,8.40
2019-01-08T07:26:50.555Z,7.90
2019-01-08T07:29:17.807Z,7.90
2019-01-08T07:31:44.938Z,8.00
2019-01-08T07:34:12.202Z,8.60
2019-01-08T07:36:39.432Z,8.20
2019-01-08T07:39:06.722Z,8.00
2019-01-08T07:43:48.030Z,8.00
2019-01-08T07:46:15.286Z,8.00
2019-01-08T07:48:42.513Z,8.00
2019-01-08T07:51:09.781Z,8.50
2019-01-08T07:53:37.030Z,8.10
2019-01-08T07:56:04.375Z,8.10
2019-01-08T07:58:31.651Z,8.20
2019-01-08T08:00:58.986Z,8.10
2019-01-08T08:03:26.246Z,8.10
2019-01-08T08:05:53.608Z,8.10
2019-01-08T08:08:20.928Z,8.20
2019-01-08T08:10:48.158Z,8.10
2019-01-08T08:14:49.511Z,7.90
2019-01-08T08:17:16.770Z,8.10
2019-01-08T08:19:44.028Z,8.10
2019-01-08T08:22:11.279Z,9.00
2019-01-08T08:24:38.556Z,8.10
2019-01-08T08:27:05.776Z,8.80
2019-01-08T08:29:33.032Z,8.40
2019-01-08T08:32:00.165Z,8.50
2019-01-08T08:34:27.511Z,8.10
2019-01-08T08:36:54.753Z,8.10
2019-01-08T08:39:21.878Z,8.30
2019-01-08T08:41:49.146Z,8.70
2019-01-08T08:44:50.139Z,8.00
2019-01-08T08:47:17.413Z,8.00
2019-01-08T08:49:44.572Z,8.50
2019-01-08T08:52:11.843Z,8.10
2019-01-08T08:54:39.089Z,8.00
2019-01-08T08:57:06.339Z,8.20
2019-01-08T08:59:33.713Z,8.10
2019-01-08T09:02:00.951Z,8.00
2019-01-08T09:04:28.125Z,8.20
2019-01-08T09:06:55.271Z,8.50
2019-01-08T09:09:22.431Z,8.20
2019-01-08T09:11:49.685Z,8.30
2019-01-08T09:16:23.290Z,8.50
2019-01-08T09:18:51.142Z,8.60
2019-01-08T09:21:18.561Z,8.60
2019-01-08T09:26:13.402Z,8.80
2019-01-08T09:31:15.268Z,8.80
2019-01-08T09:33:37.380Z,8.80
2019-01-08T09:38:32.117Z,8.70
2019-01-08T09:40:59.623Z,8.70
2019-01-08T09:43:27.043Z,8.70
2019-01-08T09:48:21.776Z,8.60
2019-01-08T09:55:43.865Z,8.60
2019-01-08T09:58:11.119Z,8.60
2019-01-08T10:03:05.905Z,8.60
2019-01-08T10:05:33.394Z,8.60
2019-01-08T10:08:00.779Z,8.60
2019-01-08T10:15:23.147Z,8.70
2019-01-08T10:17:51.461Z,8.70
2019-01-08T10:20:18.893Z,8.80
2019-01-08T10:27:43.082Z,8.90
2019-01-08T10:30:10.552Z,8.90
2019-01-08T10:32:37.906Z,8.90
2019-01-08T10:37:32.964Z,9.10
2019-01-08T10:40:01.504Z,9.10
2019-01-08T10:42:29.063Z,9.20
2019-01-08T10:47:23.791Z,9.40
2019-01-08T10:49:51.245Z,9.50
2019-01-08T10:52:18.556Z,9.60
2019-01-08T10:54:45.999Z,9.80
2019-01-08T10:57:13.310Z,9.80
2019-01-08T10:59:40.704Z,9.90
2019-01-08T11:02:08.038Z,10.00
2019-01-08T11:04:35.556Z,9.90
2019-01-08T11:07:02.981Z,9.90
2019-01-08T11:14:25.276Z,9.70
2019-01-08T11:16:52.630Z,9.60
2019-01-08T11:21:47.374Z,9.50
2019-01-08T11:24:14.794Z,9.40
2019-01-08T11:26:42.119Z,9.30
2019-01-08T11:29:09.421Z,9.30
2019-01-08T11:31:36.843Z,9.30
2019-01-08T11:34:04.062Z,9.20
2019-01-08T11:36:31.266Z,9.10
2019-01-08T11:38:58.591Z,9.10
2019-01-08T11:41:26.069Z,9.10
2019-01-08T11:43:53.520Z,9.10
2019-01-08T11:46:20.916Z,9.10
2019-01-08T11:48:48.212Z,9.20
2019-01-08T11:51:15.489Z,9.30
2019-01-08T11:53:42.806Z,9.30
2019-01-08T11:56:10.225Z,9.40
2019-01-08T11:58:37.700Z,9.40
2019-01-08T12:01:05.159Z,9.40
2019-01-08T12:03:32.557Z,9.50
2019-01-08T12:05:59.986Z,9.50
2019-01-08T12:13:22.043Z,9.60
2019-01-08T12:15:49.389Z,9.70
2019-01-08T12:18:16.789Z,9.80
2019-01-08T12:20:44.133Z,9.90
2019-01-08T12:23:11.587Z,10.10
2019-01-08T12:28:06.340Z,10.40
2019-01-08T12:30:33.724Z,10.50
2019-01-08T12:33:01.095Z,10.70
2019-01-08T12:35:28.406Z,10.60
2019-01-08T12:37:55.726Z,10.90
2019-01-08T12:40:23.087Z,11.00
2019-01-08T12:42:50.568Z,11.00
2019-01-08T12:47:45.306Z,11.10
2019-01-08T12:50:12.856Z,11.20
2019-01-08T12:52:40.401Z,11.20
2019-01-08T12:55:07.743Z,11.30
2019-01-08T12:57:35.159Z,11.40
2019-01-08T13:02:44.469Z,11.50
2019-01-08T13:05:11.704Z,11.40
2019-01-08T13:07:38.939Z,11.70
2019-01-08T13:10:06.246Z,11.40
2019-01-08T13:12:33.498Z,11.40
2019-01-08T13:15:00.759Z,11.30
2019-01-08T13:17:28.019Z,11.40
2019-01-08T13:19:55.284Z,11.20
2019-01-08T13:22:22.410Z,11.20
2019-01-08T13:24:49.666Z,11.20
2019-01-08T13:27:16.907Z,11.20
2019-01-08T13:29:44.041Z,11.30
2019-01-08T13:32:11.319Z,11.90
2019-01-08T13:34:38.575Z,11.50
2019-01-08T13:37:05.826Z,11.50
2019-01-08T13:39:33.114Z,11.70
2019-01-08T13:42:00.327Z,11.50
2019-01-08T13:44:27.484Z,11.50
2019-01-08T13:46:54.742Z,11.70
2019-01-08T13:49:21.896Z,11.40
2019-01-08T13:51:49.248Z,11.30
2019-01-08T13:54:16.510Z,11.10
2019-01-08T13:56:43.979Z,11.00
2019-01-08T13:59:11.256Z,10.90
2019-01-08T14:01:38.378Z,10.80
2019-01-08T14:04:05.676Z,11.20
2019-01-08T14:06:32.811Z,10.60
2019-01-08T14:09:00.066Z,10.50
2019-01-08T14:11:27.306Z,10.60
2019-01-08T14:13:54.535Z,10.40
2019-01-08T14:16:21.784Z,10.30
2019-01-08T14:18:49.018Z,10.20
2019-01-08T14:21:16.285Z,10.10
2019-01-08T14:23:43.645Z,10.00
2019-01-08T14:26:10.925Z,10.00
2019-01-08T14:28:38.171Z,9.90
2019-01-08T14:31:05.443Z,9.80
2019-01-08T14:33:32.752Z,10.00
2019-01-08T14:36:00.014Z,9.90
2019-01-08T14:38:27.287Z,9.70
2019-01-08T14:40:54.518Z,9.70
2019-01-08T14:43:21.766Z,9.60
2019-01-08T14:45:48.977Z,9.60
2019-01-08T14:48:16.242Z,9.60
2019-01-08T14:51:19.371Z,9.50
2019-01-08T14:53:46.785Z,9.60
2019-01-08T14:56:14.027Z,9.90
2019-01-08T14:58:41.288Z,9.50
2019-01-08T15:01:08.581Z,9.70
2019-01-08T15:03:35.870Z,9.40
2019-01-08T15:06:03.023Z,9.50
2019-01-08T15:08:30.171Z,9.50
2019-01-08T15:10:57.446Z,9.40
2019-01-08T15:13:26.075Z,9.40
2019-01-08T15:15:53.339Z,9.30
2019-01-08T15:18:20.715Z,9.30
2019-01-08T15:20:48.029Z,9.70
2019-01-08T15:23:15.279Z,9.20
2019-01-08T15:25:42.560Z,10.60
2019-01-08T15:28:09.930Z,9.40
2019-01-08T15:33:30.990Z,9.10
2019-01-08T15:35:58.272Z,9.20
2019-01-08T15:38:27.442Z,9.10
2019-01-08T15:40:54.782Z,9.40
2019-01-08T15:43:22.108Z,9.00
2019-01-08T15:45:49.374Z,9.10
2019-01-08T15:48:16.625Z,9.00
2019-01-08T15:50:43.780Z,9.00
2019-01-08T15:53:11.046Z,9.30
2019-01-08T15:55:38.334Z,8.90
2019-01-08T15:58:05.622Z,9.00
2019-01-08T16:00:34.706Z,8.90
2019-01-08T16:03:07.092Z,8.90
2019-01-08T16:05:31.134Z,8.90
2019-01-08T16:07:58.421Z,8.90
2019-01-08T16:10:25.672Z,8.80
2019-01-08T16:12:52.924Z,8.80
2019-01-08T16:15:20.171Z,9.10
2019-01-08T16:17:47.326Z,8.80
2019-01-08T16:20:14.607Z,10.50
2019-01-08T16:22:41.969Z,8.90
2019-01-08T16:25:09.272Z,8.80
2019-01-08T16:27:36.534Z,8.80
2019-01-08T16:30:04.720Z,9.10
2019-01-08T16:32:32.058Z,8.80
2019-01-08T16:34:59.235Z,8.80
2019-01-08T16:37:26.476Z,8.80
2019-01-08T16:39:53.720Z,8.80
2019-01-08T16:42:22.643Z,8.90
2019-01-08T16:44:50.196Z,8.70
2019-01-08T16:47:17.450Z,8.70
2019-01-08T16:49:44.722Z,9.40
2019-01-08T16:52:12.139Z,8.70
2019-01-08T16:54:39.426Z,8.70
2019-01-08T16:57:06.729Z,8.70
2019-01-08T16:59:34.012Z,9.10
2019-01-08T17:02:01.410Z,8.60
2019-01-08T17:04:28.762Z,8.60
2019-01-08T17:06:56.118Z,8.60
2019-01-08T17:09:24.609Z,8.60
2019-01-08T17:11:51.982Z,8.60
2019-01-08T17:14:19.273Z,8.60
2019-01-08T17:16:46.727Z,8.60
2019-01-08T17:19:13.939Z,8.60
2019-01-08T17:21:41.170Z,8.60
2019-01-08T17:24:08.360Z,8.60
2019-01-08T17:26:35.619Z,8.70
2019-01-08T17:29:02.917Z,8.60
2019-01-08T17:31:30.155Z,8.90
2019-01-08T17:33:57.396Z,8.60
2019-01-08T17:36:24.547Z,8.50
2019-01-08T17:38:51.663Z,8.50
2019-01-08T17:41:18.945Z,8.50
2019-01-08T17:43:46.295Z,8.50
2019-01-08T17:46:13.613Z,8.80
2019-01-08T17:48:40.961Z,8.50
2019-01-08T17:51:08.251Z,8.50
2019-01-08T17:53:55.051Z,8.50
2019-01-08T17:56:22.331Z,8.50
2019-01-08T17:59:18.849Z,8.50
2019-01-08T18:01:55.110Z,8.40
2019-01-08T18:04:22.375Z,8.40
2019-01-08T18:06:49.655Z,8.40
2019-01-08T18:09:16.919Z,8.40
2019-01-08T18:11:44.245Z,8.40
2019-01-08T18:14:11.545Z,8.40
2019-01-08T18:16:38.893Z,9.00
2019-01-08T18:19:06.166Z,8.40
2019-01-08T18:21:33.417Z,8.90
2019-01-08T18:24:00.807Z,8.50
2019-01-08T18:26:28.044Z,8.30
2019-01-08T18:28:55.415Z,8.30
2019-01-08T18:31:22.691Z,8.20
2019-01-08T18:33:51.655Z,8.40
2019-01-08T18:36:19.193Z,8.20
2019-01-08T18:38:46.593Z,8.20
2019-01-08T18:41:13.899Z,8.60
2019-01-08T18:43:41.265Z,8.30
2019-01-08T18:46:09.916Z,8.20
2019-01-08T18:48:37.233Z,8.20
2019-01-08T18:51:04.490Z,8.10
2019-01-08T18:53:31.751Z,8.10
2019-01-08T18:55:59.082Z,8.10
2019-01-08T18:58:26.361Z,10.10
2019-01-08T19:00:53.761Z,8.50
2019-01-08T19:03:20.935Z,8.10
2019-01-08T19:05:50.577Z,8.80
2019-01-08T19:08:17.975Z,8.10
2019-01-08T19:10:45.228Z,8.10
2019-01-08T19:13:12.600Z,8.70
2019-01-08T19:15:39.864Z,8.10
2019-01-08T19:18:09.937Z,8.10
2019-01-08T19:20:37.266Z,8.50
2019-01-08T19:23:06.701Z,8.50
2019-01-08T19:25:35.497Z,8.10
2019-01-08T19:28:05.980Z,9.40
2019-01-08T19:30:35.042Z,8.20
2019-01-08T19:33:04.487Z,9.60
2019-01-08T19:35:32.061Z,8.10
2019-01-08T19:37:59.432Z,8.20
2019-01-08T19:40:26.696Z,8.20
2019-01-08T19:42:54.141Z,8.60
2019-01-08T19:45:21.406Z,9.00
2019-01-08T19:47:48.698Z,8.20
2019-01-08T19:50:15.970Z,8.50
2019-01-08T19:52:43.222Z,8.90
2019-01-08T19:55:10.503Z,8.20
2019-01-08T19:57:37.750Z,8.20
2019-01-08T20:00:09.374Z,8.20
2019-01-08T20:02:39.535Z,8.20
2019-01-08T20:05:06.718Z,8.20
2019-01-08T20:07:36.518Z,8.20
2019-01-08T20:10:04.407Z,8.30
2019-01-08T20:12:31.671Z,8.80
2019-01-08T20:15:00.751Z,8.30
2019-01-08T20:17:28.144Z,8.50
2019-01-08T20:19:55.422Z,8.20
2019-01-08T20:22:23.784Z,8.50
2019-01-08T20:24:51.108Z,8.30
2019-01-08T20:27:25.741Z,8.30
2019-01-08T20:29:47.542Z,8.30
2019-01-08T20:32:14.817Z,8.80
2019-01-08T20:34:43.650Z,8.30
2019-01-08T20:37:10.940Z,8.30
2019-01-08T20:39:38.209Z,8.40
2019-01-08T20:42:05.476Z,8.70
2019-01-08T20:44:32.762Z,8.40
2019-01-08T20:47:00.138Z,8.60
2019-01-08T20:49:27.397Z,8.40
2019-01-08T20:51:54.702Z,8.60
2019-01-08T20:54:22.096Z,8.40
2019-01-08T20:56:49.376Z,8.40
2019-01-08T20:59:16.634Z,8.40
2019-01-08T21:01:44.002Z,8.40
2019-01-08T21:04:11.245Z,8.40
2019-01-08T21:06:38.529Z,8.80
2019-01-08T21:09:06.512Z,8.40
2019-01-08T21:11:33.840Z,8.40
2019-01-08T21:14:04.495Z,8.70
2019-01-08T21:16:31.883Z,8.50
2019-01-08T21:19:02.158Z,8.40
2019-01-08T21:21:37.100Z,8.30
2019-01-08T21:24:04.486Z,8.30
2019-01-08T21:26:31.817Z,8.30
2019-01-08T21:28:59.085Z,8.30
2019-01-08T21:31:26.405Z,8.40
2019-01-08T21:33:53.634Z,10.70
2019-01-08T21:36:20.940Z,8.30
2019-01-08T21:38:48.205Z,8.40
2019-01-08T21:41:15.477Z,8.30
2019-01-08T21:43:42.727Z,8.30
2019-01-08T21:46:10.015Z,8.60
2019-01-08T21:48:37.285Z,8.30
2019-01-08T21:51:05.235Z,8.30
2019-01-08T21:53:32.529Z,8.30
2019-01-08T21:55:59.910Z,8.30
2019-01-08T21:58:27.174Z,8.30
2019-01-08T22:00:54.445Z,8.20
2019-01-08T22:03:21.737Z,8.30
2019-01-08T22:05:49.080Z,8.30
2019-01-08T22:08:16.342Z,8.60
2019-01-08T22:10:43.481Z,8.50
2019-01-08T22:13:10.757Z,8.40
2019-01-08T22:15:37.995Z,8.70
2019-01-08T22:18:05.247Z,8.20
2019-01-08T22:20:32.472Z,11.50
2019-01-08T22:22:59.692Z,8.40
2019-01-08T22:25:26.975Z,8.30
2019-01-08T22:27:54.226Z,8.10
2019-01-08T22:30:21.488Z,8.10
2019-01-08T22:32:48.835Z,8.10
2019-01-08T22:35:16.091Z,9.80
2019-01-08T22:37:43.320Z,8.10
2019-01-08T22:40:10.455Z,8.10
2019-01-08T22:42:37.740Z,8.40
2019-01-08T22:45:05.815Z,8.10
2019-01-08T22:47:33.095Z,8.10
2019-01-08T22:50:00.404Z,8.10
2019-01-08T22:52:27.702Z,8.20
2019-01-08T22:54:54.922Z,8.10
2019-01-08T22:57:22.172Z,8.10
2019-01-08T22:59:49.855Z,8.20
2019-01-08T23:02:17.122Z,8.10
2019-01-08T23:04:44.372Z,8.10
2019-01-08T23:07:11.606Z,8.60
2019-01-08T23:09:38.883Z,8.10
2019-01-08T23:12:06.286Z,8.10
2019-01-08T23:14:33.568Z,8.10
2019-01-08T23:17:00.825Z,8.10
2019-01-08T23:19:28.091Z,8.10
2019-01-08T23:21:55.337Z,8.60
2019-01-08T23:24:22.622Z,8.50
2019-01-08T23:28:59.083Z,8.10
2019-01-08T23:31:26.354Z,8.10
2019-01-08T23:33:53.621Z,8.10
2019-01-08T23:36:20.818Z,8.10
2019-01-08T23:38:48.057Z,8.10
2019-01-08T23:41:15.291Z,8.10
2019-01-08T23:43:42.567Z,8.10
2019-01-08T23:46:09.810Z,8.10
2019-01-08T23:48:37.103Z,8.10
2019-01-08T23:51:04.381Z,8.10
2019-01-08T23:53:33.419Z,8.10
2019-01-08T23:56:06.427Z,8.00
2019-01-08T23:58:33.690Z,8.50
